sensor_id;sensor_type;location;lat;lon;timestamp;P1;durP1;ratioP1;P2;durP2;ratioP2
27839;SDS011;15207;42.182;24.308;2023-08-06T00:07:37;7.80;;;4.10;;
27839;SDS011;15207;42.182;24.308;2023-08-06T00:10:03;6.40;;;3.60;;
27839;SDS011;15207;42.182;24.308;2023-08-06T00:12:29;7.95;;;4.05;;
27839;SDS011;15207;42.182;24.308;2023-08-06T00:14:54;9.30;;;4.30;;
27839;SDS011;15207;42.182;24.308;2023-08-06T00:17:20;11.25;;;3.95;;
27839;SDS011;15207;42.182;24.308;2023-08-06T00:19:46;6.10;;;3.50;;
27839;SDS011;15207;42.182;24.308;2023-08-06T00:29:28;9.00;;;4.70;;
27839;SDS011;15207;42.182;24.308;2023-08-06T00:31:54;8.80;;;4.30;;
27839;SDS011;15207;42.182;24.308;2023-08-06T00:34:19;9.55;;;4.35;;
27839;SDS011;15207;42.182;24.308;2023-08-06T00:36:45;9.90;;;4.80;;
27839;SDS011;15207;42.182;24.308;2023-08-06T00:41:37;9.90;;;4.90;;
27839;SDS011;15207;42.182;24.308;2023-08-06T00:44:03;10.30;;;4.70;;
27839;SDS011;15207;42.182;24.308;2023-08-06T00:46:29;8.60;;;3.90;;
27839;SDS011;15207;42.182;24.308;2023-08-06T00:48:55;9.80;;;4.70;;
27839;SDS011;15207;42.182;24.308;2023-08-06T00:51:21;8.75;;;4.70;;
27839;SDS011;15207;42.182;24.308;2023-08-06T00:53:48;10.40;;;4.50;;
27839;SDS011;15207;42.182;24.308;2023-08-06T00:56:14;6.05;;;4.30;;
27839;SDS011;15207;42.182;24.308;2023-08-06T00:58:41;6.10;;;4.10;;
27839;SDS011;15207;42.182;24.308;2023-08-06T01:01:07;9.30;;;4.40;;
27839;SDS011;15207;42.182;24.308;2023-08-06T01:03:33;6.35;;;4.40;;
27839;SDS011;15207;42.182;24.308;2023-08-06T01:06:00;9.70;;;4.60;;
27839;SDS011;15207;42.182;24.308;2023-08-06T01:11:14;8.55;;;4.40;;
27839;SDS011;15207;42.182;24.308;2023-08-06T01:13:54;9.60;;;4.60;;
27839;SDS011;15207;42.182;24.308;2023-08-06T01:16:32;8.20;;;4.20;;
27839;SDS011;15207;42.182;24.308;2023-08-06T01:18:59;13.05;;;4.40;;
27839;SDS011;15207;42.182;24.308;2023-08-06T01:28:45;9.00;;;4.70;;
27839;SDS011;15207;42.182;24.308;2023-08-06T01:31:27;7.20;;;4.35;;
27839;SDS011;15207;42.182;24.308;2023-08-06T01:34:00;8.15;;;4.30;;
27839;SDS011;15207;42.182;24.308;2023-08-06T01:36:28;8.30;;;4.90;;
27839;SDS011;15207;42.182;24.308;2023-08-06T01:38:56;7.70;;;5.00;;
27839;SDS011;15207;42.182;24.308;2023-08-06T01:43:48;12.50;;;5.30;;
27839;SDS011;15207;42.182;24.308;2023-08-06T01:46:14;9.85;;;5.40;;
27839;SDS011;15207;42.182;24.308;2023-08-06T01:48:39;10.00;;;5.10;;
27839;SDS011;15207;42.182;24.308;2023-08-06T01:51:05;6.30;;;5.20;;
27839;SDS011;15207;42.182;24.308;2023-08-06T01:53:31;6.95;;;3.35;;
27839;SDS011;15207;42.182;24.308;2023-08-06T01:55:57;7.70;;;3.05;;
27839;SDS011;15207;42.182;24.308;2023-08-06T01:58:23;5.60;;;2.57;;
27839;SDS011;15207;42.182;24.308;2023-08-06T02:00:49;5.80;;;2.40;;
27839;SDS011;15207;42.182;24.308;2023-08-06T02:03:14;4.90;;;2.60;;
27839;SDS011;15207;42.182;24.308;2023-08-06T02:05:40;3.87;;;2.00;;
27839;SDS011;15207;42.182;24.308;2023-08-06T02:08:06;9.15;;;2.85;;
27839;SDS011;15207;42.182;24.308;2023-08-06T02:10:32;5.25;;;2.60;;
27839;SDS011;15207;42.182;24.308;2023-08-06T02:12:58;8.00;;;2.80;;
27839;SDS011;15207;42.182;24.308;2023-08-06T02:15:25;10.50;;;3.15;;
27839;SDS011;15207;42.182;24.308;2023-08-06T02:22:42;4.40;;;3.20;;
27839;SDS011;15207;42.182;24.308;2023-08-06T02:25:07;9.60;;;3.70;;
27839;SDS011;15207;42.182;24.308;2023-08-06T02:27:33;10.30;;;4.30;;
27839;SDS011;15207;42.182;24.308;2023-08-06T02:29:59;7.20;;;4.40;;
27839;SDS011;15207;42.182;24.308;2023-08-06T02:32:25;8.02;;;3.53;;
27839;SDS011;15207;42.182;24.308;2023-08-06T02:34:51;12.90;;;5.00;;
27839;SDS011;15207;42.182;24.308;2023-08-06T02:37:17;6.60;;;3.65;;
27839;SDS011;15207;42.182;24.308;2023-08-06T02:39:43;9.63;;;3.35;;
27839;SDS011;15207;42.182;24.308;2023-08-06T02:42:08;6.80;;;3.70;;
27839;SDS011;15207;42.182;24.308;2023-08-06T02:44:34;7.60;;;3.50;;
27839;SDS011;15207;42.182;24.308;2023-08-06T02:47:01;8.75;;;4.10;;
27839;SDS011;15207;42.182;24.308;2023-08-06T02:49:26;6.60;;;3.45;;
27839;SDS011;15207;42.182;24.308;2023-08-06T02:51:52;6.10;;;3.95;;
27839;SDS011;15207;42.182;24.308;2023-08-06T02:54:18;5.60;;;3.90;;
27839;SDS011;15207;42.182;24.308;2023-08-06T02:59:11;7.20;;;3.90;;
27839;SDS011;15207;42.182;24.308;2023-08-06T03:01:38;5.00;;;3.80;;
27839;SDS011;15207;42.182;24.308;2023-08-06T03:04:05;8.55;;;3.95;;
27839;SDS011;15207;42.182;24.308;2023-08-06T03:06:31;6.67;;;4.00;;
27839;SDS011;15207;42.182;24.308;2023-08-06T03:08:57;6.60;;;3.90;;
27839;SDS011;15207;42.182;24.308;2023-08-06T03:11:22;9.05;;;4.20;;
27839;SDS011;15207;42.182;24.308;2023-08-06T03:13:48;5.90;;;4.10;;
27839;SDS011;15207;42.182;24.308;2023-08-06T03:16:14;6.50;;;3.80;;
27839;SDS011;15207;42.182;24.308;2023-08-06T03:21:05;6.90;;;4.00;;
27839;SDS011;15207;42.182;24.308;2023-08-06T03:23:31;6.55;;;3.55;;
27839;SDS011;15207;42.182;24.308;2023-08-06T03:26:01;7.20;;;3.90;;
27839;SDS011;15207;42.182;24.308;2023-08-06T03:28:28;6.00;;;3.80;;
27839;SDS011;15207;42.182;24.308;2023-08-06T03:31:03;6.90;;;4.30;;
27839;SDS011;15207;42.182;24.308;2023-08-06T03:33:29;10.40;;;4.20;;
27839;SDS011;15207;42.182;24.308;2023-08-06T03:35:55;10.20;;;4.40;;
27839;SDS011;15207;42.182;24.308;2023-08-06T03:38:22;4.90;;;3.45;;
27839;SDS011;15207;42.182;24.308;2023-08-06T03:40:48;7.50;;;4.30;;
27839;SDS011;15207;42.182;24.308;2023-08-06T03:43:14;5.20;;;3.70;;
27839;SDS011;15207;42.182;24.308;2023-08-06T03:48:06;6.25;;;4.10;;
27839;SDS011;15207;42.182;24.308;2023-08-06T03:50:32;8.57;;;5.30;;
27839;SDS011;15207;42.182;24.308;2023-08-06T03:52:59;10.00;;;5.50;;
27839;SDS011;15207;42.182;24.308;2023-08-06T03:55:25;13.60;;;4.90;;
27839;SDS011;15207;42.182;24.308;2023-08-06T03:57:51;7.50;;;4.60;;
27839;SDS011;15207;42.182;24.308;2023-08-06T04:00:17;6.80;;;3.85;;
27839;SDS011;15207;42.182;24.308;2023-08-06T04:02:44;5.90;;;3.95;;
27839;SDS011;15207;42.182;24.308;2023-08-06T04:05:10;5.00;;;3.50;;
27839;SDS011;15207;42.182;24.308;2023-08-06T04:07:36;5.60;;;3.90;;
27839;SDS011;15207;42.182;24.308;2023-08-06T04:10:02;6.60;;;4.25;;
27839;SDS011;15207;42.182;24.308;2023-08-06T04:12:29;6.90;;;4.10;;
27839;SDS011;15207;42.182;24.308;2023-08-06T04:14:57;4.20;;;3.20;;
27839;SDS011;15207;42.182;24.308;2023-08-06T04:19:51;5.65;;;3.50;;
27839;SDS011;15207;42.182;24.308;2023-08-06T04:22:18;6.67;;;3.67;;
27839;SDS011;15207;42.182;24.308;2023-08-06T04:24:45;6.80;;;3.50;;
27839;SDS011;15207;42.182;24.308;2023-08-06T04:29:37;6.20;;;3.60;;
27839;SDS011;15207;42.182;24.308;2023-08-06T04:32:03;4.70;;;3.50;;
27839;SDS011;15207;42.182;24.308;2023-08-06T04:34:34;5.80;;;3.50;;
27839;SDS011;15207;42.182;24.308;2023-08-06T04:37:01;5.70;;;3.70;;
27839;SDS011;15207;42.182;24.308;2023-08-06T04:39:28;5.40;;;3.40;;
27839;SDS011;15207;42.182;24.308;2023-08-06T04:41:55;6.85;;;4.20;;
27839;SDS011;15207;42.182;24.308;2023-08-06T04:46:49;4.10;;;3.40;;
27839;SDS011;15207;42.182;24.308;2023-08-06T04:49:15;6.47;;;4.25;;
27839;SDS011;15207;42.182;24.308;2023-08-06T04:51:41;6.35;;;3.45;;
27839;SDS011;15207;42.182;24.308;2023-08-06T04:54:07;7.40;;;3.90;;
27839;SDS011;15207;42.182;24.308;2023-08-06T04:56:33;6.65;;;4.15;;
27839;SDS011;15207;42.182;24.308;2023-08-06T04:58:59;5.10;;;3.90;;
27839;SDS011;15207;42.182;24.308;2023-08-06T05:01:26;6.10;;;4.00;;
27839;SDS011;15207;42.182;24.308;2023-08-06T05:03:52;8.00;;;4.35;;
27839;SDS011;15207;42.182;24.308;2023-08-06T05:06:17;5.70;;;4.20;;
27839;SDS011;15207;42.182;24.308;2023-08-06T05:11:09;7.80;;;5.30;;
27839;SDS011;15207;42.182;24.308;2023-08-06T05:13:34;6.90;;;5.30;;
27839;SDS011;15207;42.182;24.308;2023-08-06T05:16:00;5.70;;;4.50;;
27839;SDS011;15207;42.182;24.308;2023-08-06T05:18:26;7.20;;;5.10;;
27839;SDS011;15207;42.182;24.308;2023-08-06T05:23:17;12.50;;;6.00;;
27839;SDS011;15207;42.182;24.308;2023-08-06T05:28:08;12.70;;;6.20;;
27839;SDS011;15207;42.182;24.308;2023-08-06T05:30:34;13.50;;;6.70;;
27839;SDS011;15207;42.182;24.308;2023-08-06T05:35:29;10.70;;;6.25;;
27839;SDS011;15207;42.182;24.308;2023-08-06T05:37:56;10.60;;;6.50;;
27839;SDS011;15207;42.182;24.308;2023-08-06T05:40:21;9.80;;;5.80;;
27839;SDS011;15207;42.182;24.308;2023-08-06T05:42:47;9.70;;;5.70;;
27839;SDS011;15207;42.182;24.308;2023-08-06T05:45:13;10.65;;;5.80;;
27839;SDS011;15207;42.182;24.308;2023-08-06T05:47:39;11.00;;;6.15;;
27839;SDS011;15207;42.182;24.308;2023-08-06T05:50:06;11.05;;;5.95;;
27839;SDS011;15207;42.182;24.308;2023-08-06T05:52:34;10.80;;;5.40;;
27839;SDS011;15207;42.182;24.308;2023-08-06T05:54:59;10.20;;;5.70;;
27839;SDS011;15207;42.182;24.308;2023-08-06T06:02:17;8.90;;;5.00;;
27839;SDS011;15207;42.182;24.308;2023-08-06T06:04:44;11.90;;;5.00;;
27839;SDS011;15207;42.182;24.308;2023-08-06T06:07:09;7.25;;;4.95;;
27839;SDS011;15207;42.182;24.308;2023-08-06T06:09:35;5.50;;;4.70;;
27839;SDS011;15207;42.182;24.308;2023-08-06T06:12:01;9.90;;;4.78;;
27839;SDS011;15207;42.182;24.308;2023-08-06T06:14:27;6.30;;;4.80;;
27839;SDS011;15207;42.182;24.308;2023-08-06T06:16:53;7.43;;;4.50;;
27839;SDS011;15207;42.182;24.308;2023-08-06T06:19:18;5.70;;;4.80;;
27839;SDS011;15207;42.182;24.308;2023-08-06T06:21:44;5.65;;;3.95;;
27839;SDS011;15207;42.182;24.308;2023-08-06T06:24:10;7.30;;;4.10;;
27839;SDS011;15207;42.182;24.308;2023-08-06T06:26:36;6.50;;;3.30;;
27839;SDS011;15207;42.182;24.308;2023-08-06T06:29:01;4.40;;;3.60;;
27839;SDS011;15207;42.182;24.308;2023-08-06T06:31:28;7.10;;;3.60;;
27839;SDS011;15207;42.182;24.308;2023-08-06T06:33:53;4.35;;;3.15;;
27839;SDS011;15207;42.182;24.308;2023-08-06T06:41:11;5.65;;;3.75;;
27839;SDS011;15207;42.182;24.308;2023-08-06T06:43:37;4.40;;;3.20;;
27839;SDS011;15207;42.182;24.308;2023-08-06T06:46:04;5.55;;;3.05;;
27839;SDS011;15207;42.182;24.308;2023-08-06T06:48:32;4.07;;;2.90;;
27839;SDS011;15207;42.182;24.308;2023-08-06T06:50:59;5.50;;;3.10;;
27839;SDS011;15207;42.182;24.308;2023-08-06T06:55:55;4.25;;;3.13;;
27839;SDS011;15207;42.182;24.308;2023-08-06T06:58:26;7.40;;;3.55;;
27839;SDS011;15207;42.182;24.308;2023-08-06T07:00:52;4.07;;;2.97;;
27839;SDS011;15207;42.182;24.308;2023-08-06T07:03:19;5.65;;;3.95;;
27839;SDS011;15207;42.182;24.308;2023-08-06T07:05:46;5.00;;;3.25;;
27839;SDS011;15207;42.182;24.308;2023-08-06T07:08:12;3.45;;;2.65;;
27839;SDS011;15207;42.182;24.308;2023-08-06T07:10:40;3.70;;;2.70;;
27839;SDS011;15207;42.182;24.308;2023-08-06T07:13:06;2.90;;;2.40;;
27839;SDS011;15207;42.182;24.308;2023-08-06T07:15:31;3.30;;;2.60;;
27839;SDS011;15207;42.182;24.308;2023-08-06T07:17:58;5.55;;;3.20;;
27839;SDS011;15207;42.182;24.308;2023-08-06T07:20:23;2.75;;;2.30;;
27839;SDS011;15207;42.182;24.308;2023-08-06T07:22:49;4.80;;;2.30;;
27839;SDS011;15207;42.182;24.308;2023-08-06T07:25:16;3.15;;;2.45;;
27839;SDS011;15207;42.182;24.308;2023-08-06T07:27:42;2.65;;;2.35;;
27839;SDS011;15207;42.182;24.308;2023-08-06T07:30:09;2.75;;;2.15;;
27839;SDS011;15207;42.182;24.308;2023-08-06T07:32:35;2.80;;;2.30;;
27839;SDS011;15207;42.182;24.308;2023-08-06T07:35:00;3.10;;;2.27;;
27839;SDS011;15207;42.182;24.308;2023-08-06T07:37:27;3.65;;;2.30;;
27839;SDS011;15207;42.182;24.308;2023-08-06T07:39:56;2.55;;;2.15;;
27839;SDS011;15207;42.182;24.308;2023-08-06T07:42:22;3.40;;;2.10;;
27839;SDS011;15207;42.182;24.308;2023-08-06T07:44:52;2.70;;;2.10;;
27839;SDS011;15207;42.182;24.308;2023-08-06T07:47:21;5.20;;;1.80;;
27839;SDS011;15207;42.182;24.308;2023-08-06T07:52:12;2.80;;;1.80;;
27839;SDS011;15207;42.182;24.308;2023-08-06T07:54:38;2.30;;;1.90;;
27839;SDS011;15207;42.182;24.308;2023-08-06T07:57:05;1.90;;;1.70;;
27839;SDS011;15207;42.182;24.308;2023-08-06T07:59:31;2.70;;;1.95;;
27839;SDS011;15207;42.182;24.308;2023-08-06T08:01:57;2.70;;;1.90;;
27839;SDS011;15207;42.182;24.308;2023-08-06T08:04:24;2.40;;;2.15;;
27839;SDS011;15207;42.182;24.308;2023-08-06T08:06:50;4.70;;;1.90;;
27839;SDS011;15207;42.182;24.308;2023-08-06T08:09:15;3.60;;;2.10;;
27839;SDS011;15207;42.182;24.308;2023-08-06T08:14:07;3.30;;;1.90;;
27839;SDS011;15207;42.182;24.308;2023-08-06T08:16:33;1.85;;;1.50;;
27839;SDS011;15207;42.182;24.308;2023-08-06T08:18:59;2.60;;;1.95;;
27839;SDS011;15207;42.182;24.308;2023-08-06T08:21:26;2.60;;;1.70;;
27839;SDS011;15207;42.182;24.308;2023-08-06T08:23:52;2.15;;;1.80;;
27839;SDS011;15207;42.182;24.308;2023-08-06T08:26:18;2.05;;;1.55;;
27839;SDS011;15207;42.182;24.308;2023-08-06T08:28:44;2.70;;;2.00;;
27839;SDS011;15207;42.182;24.308;2023-08-06T08:33:36;3.60;;;2.10;;
27839;SDS011;15207;42.182;24.308;2023-08-06T08:36:02;3.15;;;2.45;;
27839;SDS011;15207;42.182;24.308;2023-08-06T08:38:28;2.45;;;2.25;;
27839;SDS011;15207;42.182;24.308;2023-08-06T08:40:54;3.60;;;2.70;;
27839;SDS011;15207;42.182;24.308;2023-08-06T08:45:50;4.45;;;3.25;;
27839;SDS011;15207;42.182;24.308;2023-08-06T08:48:17;5.30;;;3.40;;
27839;SDS011;15207;42.182;24.308;2023-08-06T08:50:47;5.30;;;3.80;;
27839;SDS011;15207;42.182;24.308;2023-08-06T08:53:14;5.60;;;3.50;;
27839;SDS011;15207;42.182;24.308;2023-08-06T08:55:41;4.60;;;3.80;;
27839;SDS011;15207;42.182;24.308;2023-08-06T08:58:13;6.65;;;3.90;;
27839;SDS011;15207;42.182;24.308;2023-08-06T09:00:43;6.20;;;4.60;;
27839;SDS011;15207;42.182;24.308;2023-08-06T09:03:11;7.50;;;4.75;;
27839;SDS011;15207;42.182;24.308;2023-08-06T09:05:37;6.50;;;5.10;;
27839;SDS011;15207;42.182;24.308;2023-08-06T09:08:10;7.20;;;5.50;;
27839;SDS011;15207;42.182;24.308;2023-08-06T09:10:39;7.83;;;5.37;;
27839;SDS011;15207;42.182;24.308;2023-08-06T09:13:06;8.45;;;5.80;;
27839;SDS011;15207;42.182;24.308;2023-08-06T09:15:33;5.80;;;4.90;;
27839;SDS011;15207;42.182;24.308;2023-08-06T09:17:59;9.50;;;5.20;;
27839;SDS011;15207;42.182;24.308;2023-08-06T09:20:25;6.90;;;5.10;;
27839;SDS011;15207;42.182;24.308;2023-08-06T09:22:54;6.55;;;5.40;;
27839;SDS011;15207;42.182;24.308;2023-08-06T09:25:23;6.00;;;5.00;;
27839;SDS011;15207;42.182;24.308;2023-08-06T09:27:51;6.45;;;4.85;;
27839;SDS011;15207;42.182;24.308;2023-08-06T09:30:30;5.50;;;4.53;;
27839;SDS011;15207;42.182;24.308;2023-08-06T09:32:56;6.00;;;3.60;;
27839;SDS011;15207;42.182;24.308;2023-08-06T09:35:22;7.30;;;3.80;;
27839;SDS011;15207;42.182;24.308;2023-08-06T09:37:49;6.20;;;4.00;;
27839;SDS011;15207;42.182;24.308;2023-08-06T09:42:56;4.30;;;3.30;;
27839;SDS011;15207;42.182;24.308;2023-08-06T09:45:24;7.60;;;3.90;;
27839;SDS011;15207;42.182;24.308;2023-08-06T09:50:23;5.25;;;3.60;;
27839;SDS011;15207;42.182;24.308;2023-08-06T09:52:55;4.10;;;3.50;;
27839;SDS011;15207;42.182;24.308;2023-08-06T09:55:22;5.70;;;3.70;;
27839;SDS011;15207;42.182;24.308;2023-08-06T09:57:48;5.80;;;4.60;;
27839;SDS011;15207;42.182;24.308;2023-08-06T10:00:15;4.60;;;3.30;;
27839;SDS011;15207;42.182;24.308;2023-08-06T10:02:41;4.20;;;3.20;;
27839;SDS011;15207;42.182;24.308;2023-08-06T10:05:08;4.70;;;3.10;;
27839;SDS011;15207;42.182;24.308;2023-08-06T10:07:34;4.10;;;3.00;;
27839;SDS011;15207;42.182;24.308;2023-08-06T10:10:00;3.70;;;3.20;;
27839;SDS011;15207;42.182;24.308;2023-08-06T10:12:32;4.90;;;3.00;;
27839;SDS011;15207;42.182;24.308;2023-08-06T10:15:01;5.50;;;3.50;;
27839;SDS011;15207;42.182;24.308;2023-08-06T10:17:31;3.30;;;2.90;;
27839;SDS011;15207;42.182;24.308;2023-08-06T10:19:59;3.90;;;3.00;;
27839;SDS011;15207;42.182;24.308;2023-08-06T10:22:25;5.95;;;2.65;;
27839;SDS011;15207;42.182;24.308;2023-08-06T10:27:21;4.40;;;2.40;;
27839;SDS011;15207;42.182;24.308;2023-08-06T10:32:19;3.93;;;2.80;;
27839;SDS011;15207;42.182;24.308;2023-08-06T10:37:22;3.40;;;2.60;;
27839;SDS011;15207;42.182;24.308;2023-08-06T10:39:49;5.60;;;2.50;;
27839;SDS011;15207;42.182;24.308;2023-08-06T10:42:19;3.80;;;2.50;;
27839;SDS011;15207;42.182;24.308;2023-08-06T10:47:42;3.00;;;2.30;;
27839;SDS011;15207;42.182;24.308;2023-08-06T10:50:18;3.60;;;2.10;;
27839;SDS011;15207;42.182;24.308;2023-08-06T10:52:45;2.60;;;2.35;;
27839;SDS011;15207;42.182;24.308;2023-08-06T10:55:13;2.30;;;2.10;;
27839;SDS011;15207;42.182;24.308;2023-08-06T11:00:08;3.45;;;2.20;;
27839;SDS011;15207;42.182;24.308;2023-08-06T11:02:37;4.60;;;1.90;;
27839;SDS011;15207;42.182;24.308;2023-08-06T11:05:06;4.00;;;2.40;;
27839;SDS011;15207;42.182;24.308;2023-08-06T11:07:33;2.40;;;1.90;;
27839;SDS011;15207;42.182;24.308;2023-08-06T11:10:06;3.10;;;2.20;;
27839;SDS011;15207;42.182;24.308;2023-08-06T11:15:02;2.50;;;1.80;;
27839;SDS011;15207;42.182;24.308;2023-08-06T11:17:29;2.80;;;1.90;;
27839;SDS011;15207;42.182;24.308;2023-08-06T11:22:24;3.80;;;1.80;;
27839;SDS011;15207;42.182;24.308;2023-08-06T11:29:41;2.90;;;1.70;;
27839;SDS011;15207;42.182;24.308;2023-08-06T11:32:08;2.50;;;1.60;;
27839;SDS011;15207;42.182;24.308;2023-08-06T11:34:34;2.20;;;1.50;;
27839;SDS011;15207;42.182;24.308;2023-08-06T11:37:00;1.90;;;1.40;;
27839;SDS011;15207;42.182;24.308;2023-08-06T11:44:19;2.30;;;1.50;;
27839;SDS011;15207;42.182;24.308;2023-08-06T11:46:55;1.55;;;1.40;;
27839;SDS011;15207;42.182;24.308;2023-08-06T11:54:59;1.60;;;1.50;;
27839;SDS011;15207;42.182;24.308;2023-08-06T11:57:31;2.60;;;1.60;;
27839;SDS011;15207;42.182;24.308;2023-08-06T12:00:03;3.70;;;1.70;;
27839;SDS011;15207;42.182;24.308;2023-08-06T12:07:41;1.60;;;1.35;;
27839;SDS011;15207;42.182;24.308;2023-08-06T12:10:13;1.80;;;1.40;;
27839;SDS011;15207;42.182;24.308;2023-08-06T12:12:39;3.35;;;1.65;;
27839;SDS011;15207;42.182;24.308;2023-08-06T12:15:06;3.90;;;1.70;;
27839;SDS011;15207;42.182;24.308;2023-08-06T12:17:32;2.10;;;1.60;;
27839;SDS011;15207;42.182;24.308;2023-08-06T12:19:59;2.50;;;1.50;;
27839;SDS011;15207;42.182;24.308;2023-08-06T12:22:25;4.20;;;1.50;;
27839;SDS011;15207;42.182;24.308;2023-08-06T12:24:51;2.60;;;1.70;;
27839;SDS011;15207;42.182;24.308;2023-08-06T12:27:19;1.70;;;1.40;;
27839;SDS011;15207;42.182;24.308;2023-08-06T12:29:46;1.50;;;1.30;;
27839;SDS011;15207;42.182;24.308;2023-08-06T12:32:13;2.40;;;1.50;;
27839;SDS011;15207;42.182;24.308;2023-08-06T12:34:39;2.25;;;1.80;;
27839;SDS011;15207;42.182;24.308;2023-08-06T12:37:06;2.45;;;1.60;;
27839;SDS011;15207;42.182;24.308;2023-08-06T12:39:32;1.55;;;1.10;;
27839;SDS011;15207;42.182;24.308;2023-08-06T12:42:01;1.50;;;1.00;;
27839;SDS011;15207;42.182;24.308;2023-08-06T12:44:29;1.50;;;1.20;;
27839;SDS011;15207;42.182;24.308;2023-08-06T12:46:55;1.70;;;1.35;;
27839;SDS011;15207;42.182;24.308;2023-08-06T12:51:47;3.50;;;1.40;;
27839;SDS011;15207;42.182;24.308;2023-08-06T12:54:14;4.30;;;1.20;;
27839;SDS011;15207;42.182;24.308;2023-08-06T13:01:30;2.00;;;1.40;;
27839;SDS011;15207;42.182;24.308;2023-08-06T13:03:57;1.50;;;1.10;;
27839;SDS011;15207;42.182;24.308;2023-08-06T13:06:23;1.60;;;1.20;;
27839;SDS011;15207;42.182;24.308;2023-08-06T13:11:14;2.20;;;1.40;;
27839;SDS011;15207;42.182;24.308;2023-08-06T13:13:40;1.95;;;1.30;;
27839;SDS011;15207;42.182;24.308;2023-08-06T13:16:05;1.70;;;1.30;;
27839;SDS011;15207;42.182;24.308;2023-08-06T13:18:31;2.33;;;1.23;;
27839;SDS011;15207;42.182;24.308;2023-08-06T13:20:56;2.20;;;1.40;;
27839;SDS011;15207;42.182;24.308;2023-08-06T13:23:22;1.80;;;1.20;;
27839;SDS011;15207;42.182;24.308;2023-08-06T13:25:48;2.30;;;1.10;;
27839;SDS011;15207;42.182;24.308;2023-08-06T13:28:15;1.55;;;1.45;;
27839;SDS011;15207;42.182;24.308;2023-08-06T13:30:40;2.95;;;1.40;;
27839;SDS011;15207;42.182;24.308;2023-08-06T13:33:09;3.35;;;1.40;;
27839;SDS011;15207;42.182;24.308;2023-08-06T13:35:37;2.20;;;1.30;;
27839;SDS011;15207;42.182;24.308;2023-08-06T13:38:03;1.53;;;1.37;;
27839;SDS011;15207;42.182;24.308;2023-08-06T13:40:32;2.20;;;1.40;;
27839;SDS011;15207;42.182;24.308;2023-08-06T13:42:59;1.95;;;1.10;;
27839;SDS011;15207;42.182;24.308;2023-08-06T13:45:26;1.30;;;1.15;;
27839;SDS011;15207;42.182;24.308;2023-08-06T13:47:52;1.80;;;1.10;;
27839;SDS011;15207;42.182;24.308;2023-08-06T13:50:18;1.30;;;1.10;;
27839;SDS011;15207;42.182;24.308;2023-08-06T13:52:44;1.20;;;0.90;;
27839;SDS011;15207;42.182;24.308;2023-08-06T13:55:10;1.10;;;1.00;;
27839;SDS011;15207;42.182;24.308;2023-08-06T13:57:37;1.70;;;1.10;;
27839;SDS011;15207;42.182;24.308;2023-08-06T14:00:04;1.05;;;0.95;;
27839;SDS011;15207;42.182;24.308;2023-08-06T14:02:30;1.90;;;1.10;;
27839;SDS011;15207;42.182;24.308;2023-08-06T14:04:56;3.10;;;1.40;;
27839;SDS011;15207;42.182;24.308;2023-08-06T14:07:22;2.10;;;1.55;;
27839;SDS011;15207;42.182;24.308;2023-08-06T14:09:48;1.80;;;1.30;;
27839;SDS011;15207;42.182;24.308;2023-08-06T14:14:40;2.95;;;0.90;;
27839;SDS011;15207;42.182;24.308;2023-08-06T14:19:31;1.60;;;1.15;;
27839;SDS011;15207;42.182;24.308;2023-08-06T14:21:57;1.70;;;1.05;;
27839;SDS011;15207;42.182;24.308;2023-08-06T14:24:24;1.50;;;1.20;;
27839;SDS011;15207;42.182;24.308;2023-08-06T14:26:50;1.40;;;1.10;;
27839;SDS011;15207;42.182;24.308;2023-08-06T14:29:16;2.15;;;1.10;;
27839;SDS011;15207;42.182;24.308;2023-08-06T14:31:42;2.10;;;1.55;;
27839;SDS011;15207;42.182;24.308;2023-08-06T14:34:08;2.20;;;1.40;;
27839;SDS011;15207;42.182;24.308;2023-08-06T14:36:34;2.55;;;1.40;;
27839;SDS011;15207;42.182;24.308;2023-08-06T14:39:01;1.70;;;1.35;;
27839;SDS011;15207;42.182;24.308;2023-08-06T14:41:26;3.10;;;1.30;;
27839;SDS011;15207;42.182;24.308;2023-08-06T14:43:52;1.60;;;1.20;;
27839;SDS011;15207;42.182;24.308;2023-08-06T14:46:19;3.35;;;1.10;;
27839;SDS011;15207;42.182;24.308;2023-08-06T14:48:45;2.90;;;1.30;;
27839;SDS011;15207;42.182;24.308;2023-08-06T14:51:10;2.38;;;1.25;;
27839;SDS011;15207;42.182;24.308;2023-08-06T14:53:36;1.60;;;1.05;;
27839;SDS011;15207;42.182;24.308;2023-08-06T14:56:02;2.15;;;1.00;;
27839;SDS011;15207;42.182;24.308;2023-08-06T14:58:29;2.20;;;1.10;;
27839;SDS011;15207;42.182;24.308;2023-08-06T15:00:55;2.45;;;1.30;;
27839;SDS011;15207;42.182;24.308;2023-08-06T15:03:20;1.90;;;1.20;;
27839;SDS011;15207;42.182;24.308;2023-08-06T15:05:47;2.00;;;1.20;;
27839;SDS011;15207;42.182;24.308;2023-08-06T15:08:15;3.20;;;1.00;;
27839;SDS011;15207;42.182;24.308;2023-08-06T15:10:42;2.80;;;1.35;;
27839;SDS011;15207;42.182;24.308;2023-08-06T15:13:07;1.70;;;1.20;;
27839;SDS011;15207;42.182;24.308;2023-08-06T15:15:33;3.60;;;1.20;;
27839;SDS011;15207;42.182;24.308;2023-08-06T15:17:58;2.30;;;1.20;;
27839;SDS011;15207;42.182;24.308;2023-08-06T15:22:50;1.80;;;1.00;;
27839;SDS011;15207;42.182;24.308;2023-08-06T15:25:17;2.00;;;1.00;;
27839;SDS011;15207;42.182;24.308;2023-08-06T15:30:08;2.60;;;1.70;;
27839;SDS011;15207;42.182;24.308;2023-08-06T15:32:34;1.60;;;1.20;;
27839;SDS011;15207;42.182;24.308;2023-08-06T15:35:00;4.40;;;1.30;;
27839;SDS011;15207;42.182;24.308;2023-08-06T15:37:25;2.00;;;1.40;;
27839;SDS011;15207;42.182;24.308;2023-08-06T15:39:52;2.00;;;1.20;;
27839;SDS011;15207;42.182;24.308;2023-08-06T15:42:18;5.50;;;1.30;;
27839;SDS011;15207;42.182;24.308;2023-08-06T15:44:44;1.20;;;1.05;;
27839;SDS011;15207;42.182;24.308;2023-08-06T15:47:10;2.75;;;1.30;;
27839;SDS011;15207;42.182;24.308;2023-08-06T15:49:37;1.90;;;1.40;;
27839;SDS011;15207;42.182;24.308;2023-08-06T15:52:03;2.40;;;1.30;;
27839;SDS011;15207;42.182;24.308;2023-08-06T15:54:29;2.45;;;1.48;;
27839;SDS011;15207;42.182;24.308;2023-08-06T15:56:54;2.70;;;1.70;;
27839;SDS011;15207;42.182;24.308;2023-08-06T15:59:23;1.20;;;1.10;;
27839;SDS011;15207;42.182;24.308;2023-08-06T16:01:50;2.65;;;1.30;;
27839;SDS011;15207;42.182;24.308;2023-08-06T16:04:17;5.60;;;1.40;;
27839;SDS011;15207;42.182;24.308;2023-08-06T16:06:43;2.85;;;1.15;;
27839;SDS011;15207;42.182;24.308;2023-08-06T16:09:09;2.00;;;1.30;;
27839;SDS011;15207;42.182;24.308;2023-08-06T16:11:34;1.60;;;1.20;;
27839;SDS011;15207;42.182;24.308;2023-08-06T16:14:00;1.85;;;1.00;;
27839;SDS011;15207;42.182;24.308;2023-08-06T16:16:25;1.80;;;1.20;;
27839;SDS011;15207;42.182;24.308;2023-08-06T16:18:51;2.20;;;1.40;;
27839;SDS011;15207;42.182;24.308;2023-08-06T16:21:17;3.40;;;1.10;;
27839;SDS011;15207;42.182;24.308;2023-08-06T16:23:43;2.30;;;1.10;;
27839;SDS011;15207;42.182;24.308;2023-08-06T16:26:09;2.50;;;1.40;;
27839;SDS011;15207;42.182;24.308;2023-08-06T16:28:35;2.80;;;1.20;;
27839;SDS011;15207;42.182;24.308;2023-08-06T16:31:02;3.05;;;1.50;;
27839;SDS011;15207;42.182;24.308;2023-08-06T16:33:27;1.70;;;1.50;;
27839;SDS011;15207;42.182;24.308;2023-08-06T16:38:18;1.40;;;1.00;;
27839;SDS011;15207;42.182;24.308;2023-08-06T16:40:53;1.65;;;1.15;;
27839;SDS011;15207;42.182;24.308;2023-08-06T16:43:20;6.00;;;1.30;;
27839;SDS011;15207;42.182;24.308;2023-08-06T16:48:12;2.10;;;1.30;;
27839;SDS011;15207;42.182;24.308;2023-08-06T16:50:37;1.75;;;1.10;;
27839;SDS011;15207;42.182;24.308;2023-08-06T16:55:31;2.50;;;1.50;;
27839;SDS011;15207;42.182;24.308;2023-08-06T16:57:57;2.90;;;1.50;;
27839;SDS011;15207;42.182;24.308;2023-08-06T17:00:23;3.40;;;1.30;;